Time;durP1;ratioP1;P1;durP2;ratioP2;P2;SDS_P1;SDS_P2;PMS_P1;PMS_P2;Temp;Humidity;BMP_temperature;BMP_pressure;BME280_temperature;BME280_humidity;BME280_pressure;Samples;Min_cycle;Max_cycle;Signal;HPM_P1;HPM_P2
2022/04/09 00:01:15;;;;;;;135.53;55.43;;;;;;;;;;5097745;28;20492;-74
2022/04/09 00:03:43;;;;;;;141.00;57.17;;;;;;;;;;5097875;28;20545;-73
2022/04/09 00:06:12;;;;;;;135.37;54.70;;;;;;;;;;5097971;28;20465;-74
2022/04/09 00:08:40;;;;;;;145.60;57.70;;;;;;;;;;5098344;28;20458;-74
2022/04/09 00:11:08;;;;;;;136.70;56.93;;;;;;;;;;5098223;28;20549;-74
2022/04/09 00:13:36;;;;;;;142.50;54.23;;;;;;;;;;5097299;28;20494;-74
2022/04/09 00:16:04;;;;;;;121.10;52.70;;;;;;;;;;5098000;28;20464;-74
2022/04/09 00:18:32;;;;;;;111.37;50.13;;;;;;;;;;5099482;28;20463;-74
2022/04/09 00:21:00;;;;;;;117.67;53.87;;;;;;;;;;5098223;28;20522;-73
2022/04/09 00:23:29;;;;;;;97.83;46.87;;;;;;;;;;5098359;28;20491;-73
2022/04/09 00:25:57;;;;;;;109.50;50.60;;;;;;;;;;5098761;28;20505;-74
2022/04/09 00:28:24;;;;;;;120.13;53.33;;;;;;;;;;5098329;28;20521;-74
2022/04/09 00:30:52;;;;;;;118.00;53.67;;;;;;;;;;5098507;28;20459;-74
2022/04/09 00:33:20;;;;;;;105.87;50.10;;;;;;;;;;5101465;28;20517;-74
2022/04/09 00:35:48;;;;;;;100.70;49.03;;;;;;;;;;5102621;28;20451;-74
2022/04/09 00:38:15;;;;;;;110.70;53.07;;;;;;;;;;5098754;28;20459;-74
2022/04/09 00:40:45;;;;;;;110.97;54.93;;;;;;;;;;5093721;28;20550;-73
2022/04/09 00:43:12;;;;;;;73.23;44.70;;;;;;;;;;5097022;28;20489;-73
2022/04/09 00:45:43;;;;;;;82.30;45.27;;;;;;;;;;5098660;28;20452;-73
2022/04/09 00:48:11;;;;;;;98.03;49.37;;;;;;;;;;5097755;28;20487;-73
2022/04/09 00:50:39;;;;;;;83.97;49.47;;;;;;;;;;5097538;28;20551;-73
2022/04/09 00:53:10;;;;;;;105.33;50.30;;;;;;;;;;5097921;28;20488;-74
2022/04/09 00:58:27;;;;;;;115.37;49.60;;;;;;;;;;5097391;28;20427;-73
2022/04/09 01:00:54;;;;;;;128.40;52.30;;;;;;;;;;5096709;28;20451;-73
2022/04/09 01:03:22;;;;;;;119.57;50.53;;;;;;;;;;5097346;28;20774;-73
2022/04/09 01:05:50;;;;;;;110.13;48.80;;;;;;;;;;5098055;28;20504;-74
2022/04/09 01:08:20;;;;;;;119.80;52.13;;;;;;;;;;5097915;28;20451;-74
2022/04/09 01:10:50;;;;;;;114.40;48.97;;;;;;;;;;5097063;28;20444;-74
2022/04/09 01:13:17;;;;;;;139.53;54.23;;;;;;;;;;5096754;28;20467;-73
2022/04/09 01:15:46;;;;;;;128.00;53.87;;;;;;;;;;5097162;28;20453;-73
2022/04/09 01:18:15;;;;;;;128.57;54.10;;;;;;;;;;5096465;28;20459;-73
2022/04/09 01:20:43;;;;;;;141.50;57.67;;;;;;;;;;5096293;28;20444;-74
2022/04/09 01:23:12;;;;;;;132.83;55.30;;;;;;;;;;5095952;28;20519;-73
2022/04/09 01:25:43;;;;;;;136.27;56.07;;;;;;;;;;5096802;28;20505;-73
2022/04/09 01:28:10;;;;;;;139.20;56.03;;;;;;;;;;5096484;28;20519;-73
2022/04/09 01:30:38;;;;;;;119.83;53.10;;;;;;;;;;5095018;28;20530;-74
2022/04/09 01:33:06;;;;;;;88.50;46.60;;;;;;;;;;5075427;28;20452;-74
2022/04/09 01:35:37;;;;;;;98.40;50.10;;;;;;;;;;5075004;28;20484;-74
2022/04/09 01:38:04;;;;;;;74.73;47.77;;;;;;;;;;5076307;28;20452;-73
2022/04/09 01:40:33;;;;;;;91.97;50.57;;;;;;;;;;5075402;28;20440;-74
2022/04/09 01:43:01;;;;;;;56.10;41.70;;;;;;;;;;5075601;28;20543;-73
2022/04/09 01:45:29;;;;;;;89.13;48.30;;;;;;;;;;5075638;28;20444;-73
2022/04/09 01:47:57;;;;;;;82.90;48.60;;;;;;;;;;5076098;28;20526;-73
2022/04/09 01:50:26;;;;;;;82.60;47.70;;;;;;;;;;5075792;28;20533;-74
2022/04/09 01:52:53;;;;;;;90.10;50.47;;;;;;;;;;5075306;28;20456;-73
2022/04/09 01:55:21;;;;;;;122.67;54.40;;;;;;;;;;5075568;28;20460;-74
2022/04/09 01:57:51;;;;;;;104.03;49.97;;;;;;;;;;5076094;28;20555;-74
2022/04/09 02:00:18;;;;;;;116.80;51.93;;;;;;;;;;5075755;28;20513;-73
2022/04/09 02:02:47;;;;;;;111.20;51.50;;;;;;;;;;5074919;28;20460;-74
2022/04/09 02:05:15;;;;;;;110.33;51.70;;;;;;;;;;5074998;28;20525;-73
2022/04/09 02:07:47;;;;;;;73.90;44.07;;;;;;;;;;5075767;28;20468;-74
2022/04/09 02:10:16;;;;;;;105.33;49.43;;;;;;;;;;5076139;28;20456;-74
2022/04/09 02:12:44;;;;;;;118.00;52.43;;;;;;;;;;5075981;28;20459;-74
2022/04/09 02:15:14;;;;;;;128.30;52.10;;;;;;;;;;5075402;28;20453;-73
2022/04/09 02:17:42;;;;;;;133.73;54.73;;;;;;;;;;5076030;28;20456;-74
2022/04/09 02:20:12;;;;;;;123.60;53.07;;;;;;;;;;5075760;28;20465;-74
2022/04/09 02:22:40;;;;;;;135.13;54.77;;;;;;;;;;5075824;28;20923;-74
2022/04/09 02:25:15;;;;;;;128.40;53.13;;;;;;;;;;5075617;28;20502;-74
2022/04/09 02:27:42;;;;;;;127.67;54.93;;;;;;;;;;5075740;28;20462;-74
2022/04/09 02:30:11;;;;;;;114.43;50.60;;;;;;;;;;5075564;28;20521;-74
2022/04/09 02:32:48;;;;;;;128.90;54.20;;;;;;;;;;5076552;28;20445;-74
2022/04/09 02:35:16;;;;;;;130.23;55.33;;;;;;;;;;5075802;28;20456;-74
2022/04/09 02:37:44;;;;;;;150.13;58.37;;;;;;;;;;5077121;28;20452;-74
2022/04/09 02:40:12;;;;;;;141.37;57.40;;;;;;;;;;5079906;28;20896;-74
2022/04/09 02:42:40;;;;;;;146.70;56.57;;;;;;;;;;5080367;28;20462;-74
2022/04/09 02:45:09;;;;;;;147.13;57.23;;;;;;;;;;5079432;28;20472;-74
2022/04/09 02:47:37;;;;;;;113.87;51.83;;;;;;;;;;5079094;28;20463;-74
2022/04/09 02:50:07;;;;;;;113.60;52.23;;;;;;;;;;5079595;28;20957;-74
2022/04/09 02:52:35;;;;;;;122.03;50.60;;;;;;;;;;5079203;28;20902;-74
2022/04/09 02:55:03;;;;;;;123.77;51.17;;;;;;;;;;5079591;28;20927;-74
2022/04/09 02:57:31;;;;;;;125.07;55.90;;;;;;;;;;5079173;28;20455;-74
2022/04/09 02:59:59;;;;;;;87.20;46.23;;;;;;;;;;5079462;28;20807;-74
2022/04/09 03:02:27;;;;;;;128.50;53.53;;;;;;;;;;5079028;28;20452;-74
2022/04/09 03:04:55;;;;;;;137.90;58.93;;;;;;;;;;5078151;28;20924;-73
2022/04/09 03:07:24;;;;;;;140.63;55.10;;;;;;;;;;5095624;28;20478;-75
2022/04/09 03:09:52;;;;;;;132.07;51.10;;;;;;;;;;5119359;28;20461;-75
2022/04/09 03:12:20;;;;;;;142.50;54.83;;;;;;;;;;5119175;28;20446;-74
2022/04/09 03:14:48;;;;;;;142.70;57.40;;;;;;;;;;5119691;28;20451;-74
2022/04/09 03:17:16;;;;;;;145.17;55.23;;;;;;;;;;5119398;28;20450;-74
2022/04/09 03:19:44;;;;;;;141.53;53.50;;;;;;;;;;5119846;28;20539;-74
2022/04/09 03:22:13;;;;;;;102.00;49.70;;;;;;;;;;5119134;28;20450;-74
2022/04/09 03:24:42;;;;;;;111.60;49.90;;;;;;;;;;5119019;28;20497;-74
2022/04/09 03:27:10;;;;;;;117.97;50.30;;;;;;;;;;5119687;28;20450;-74
2022/04/09 03:29:39;;;;;;;105.90;48.77;;;;;;;;;;5119166;28;20462;-74
2022/04/09 03:32:07;;;;;;;124.23;53.47;;;;;;;;;;5119302;28;20450;-73
2022/04/09 03:34:35;;;;;;;133.80;53.83;;;;;;;;;;5119232;28;20455;-73
2022/04/09 03:37:02;;;;;;;139.77;54.10;;;;;;;;;;5119523;28;20831;-73
2022/04/09 03:39:31;;;;;;;137.10;52.53;;;;;;;;;;5118855;28;20507;-73
2022/04/09 03:42:00;;;;;;;123.47;53.00;;;;;;;;;;5118990;28;20450;-73
2022/04/09 03:44:28;;;;;;;138.90;53.33;;;;;;;;;;5119249;28;20498;-74
2022/04/09 03:46:59;;;;;;;140.90;53.40;;;;;;;;;;5118507;28;20520;-74
2022/04/09 03:49:27;;;;;;;125.57;53.80;;;;;;;;;;5118784;28;20463;-74
2022/04/09 03:51:55;;;;;;;115.83;51.63;;;;;;;;;;5118825;28;20458;-74
2022/04/09 03:54:23;;;;;;;126.53;50.97;;;;;;;;;;5118735;28;20451;-74
2022/04/09 03:56:51;;;;;;;134.60;51.80;;;;;;;;;;5118738;28;20723;-74
2022/04/09 03:59:21;;;;;;;118.63;52.13;;;;;;;;;;5118532;28;20463;-74
2022/04/09 04:01:49;;;;;;;129.07;53.10;;;;;;;;;;5118360;28;20842;-74
2022/04/09 04:04:17;;;;;;;141.63;53.03;;;;;;;;;;5118326;28;20490;-74
2022/04/09 04:06:44;;;;;;;122.37;51.97;;;;;;;;;;5117989;28;20450;-74
2022/04/09 04:09:14;;;;;;;97.17;46.50;;;;;;;;;;5117625;28;20507;-74
2022/04/09 04:11:41;;;;;;;119.77;49.57;;;;;;;;;;5118229;28;20455;-74
2022/04/09 04:14:09;;;;;;;103.93;51.13;;;;;;;;;;5117735;28;20802;-74
2022/04/09 04:16:38;;;;;;;113.73;49.33;;;;;;;;;;5118362;28;20576;-74
2022/04/09 04:19:06;;;;;;;103.73;50.00;;;;;;;;;;5118582;28;20463;-74
2022/04/09 04:21:36;;;;;;;96.13;46.70;;;;;;;;;;5118575;28;20794;-74
2022/04/09 04:24:06;;;;;;;68.17;42.70;;;;;;;;;;5118469;28;20547;-74
2022/04/09 04:26:34;;;;;;;73.30;42.07;;;;;;;;;;5118139;28;20446;-74
2022/04/09 04:29:02;;;;;;;84.93;43.33;;;;;;;;;;5118438;28;20508;-73
2022/04/09 04:31:29;;;;;;;138.20;53.20;;;;;;;;;;5117965;28;20435;-73
2022/04/09 04:33:59;;;;;;;155.00;56.50;;;;;;;;;;5118084;28;20450;-74
2022/04/09 04:36:26;;;;;;;151.43;53.47;;;;;;;;;;5118457;28;20863;-74
2022/04/09 04:38:54;;;;;;;158.93;55.97;;;;;;;;;;5118057;28;20454;-74
2022/04/09 04:41:22;;;;;;;156.70;55.53;;;;;;;;;;5117528;28;20457;-74
2022/04/09 04:43:51;;;;;;;157.70;55.10;;;;;;;;;;5117422;28;20458;-74
2022/04/09 04:46:19;;;;;;;150.37;53.80;;;;;;;;;;5117485;28;20485;-74
2022/04/09 04:48:47;;;;;;;158.70;55.53;;;;;;;;;;5117420;28;20473;-74
2022/04/09 04:51:17;;;;;;;158.77;54.17;;;;;;;;;;5118395;28;20454;-73
2022/04/09 04:53:51;;;;;;;153.43;55.80;;;;;;;;;;5118591;28;20525;-74
2022/04/09 04:56:20;;;;;;;138.57;52.37;;;;;;;;;;5117553;28;20862;-74
2022/04/09 04:58:48;;;;;;;153.20;53.40;;;;;;;;;;5117884;28;20481;-73
2022/04/09 05:01:15;;;;;;;160.57;56.80;;;;;;;;;;5116699;28;20730;-74
2022/04/09 05:03:43;;;;;;;159.53;55.57;;;;;;;;;;5116855;28;20450;-73
2022/04/09 05:06:11;;;;;;;154.30;58.27;;;;;;;;;;5117374;28;20486;-74
2022/04/09 05:08:41;;;;;;;152.83;56.30;;;;;;;;;;5117804;28;20451;-73
2022/04/09 05:11:08;;;;;;;144.87;55.77;;;;;;;;;;5117518;28;20461;-73
2022/04/09 05:13:36;;;;;;;134.73;53.17;;;;;;;;;;5117284;28;20561;-74
2022/04/09 05:16:04;;;;;;;133.90;52.90;;;;;;;;;;5117283;28;20447;-73
2022/04/09 05:18:32;;;;;;;135.80;52.30;;;;;;;;;;5117224;28;20462;-74
2022/04/09 05:20:59;;;;;;;126.60;51.57;;;;;;;;;;5117326;28;20446;-73
2022/04/09 05:23:28;;;;;;;140.77;55.70;;;;;;;;;;5117491;28;20565;-74
2022/04/09 05:25:57;;;;;;;127.67;52.80;;;;;;;;;;5117278;28;21011;-74
2022/04/09 05:28:25;;;;;;;128.57;53.50;;;;;;;;;;5116438;28;20546;-73
2022/04/09 05:30:52;;;;;;;137.63;57.10;;;;;;;;;;5116818;28;20545;-73
2022/04/09 05:33:20;;;;;;;146.77;56.77;;;;;;;;;;5116908;28;20458;-73
2022/04/09 05:35:48;;;;;;;138.23;53.50;;;;;;;;;;5116635;28;20445;-74
2022/04/09 05:38:16;;;;;;;126.40;52.83;;;;;;;;;;5097382;28;20462;-74
2022/04/09 05:40:44;;;;;;;104.03;49.80;;;;;;;;;;5096420;28;20542;-74
2022/04/09 05:43:13;;;;;;;85.67;49.53;;;;;;;;;;5096320;28;20523;-74
2022/04/09 05:45:40;;;;;;;123.30;53.00;;;;;;;;;;5095831;28;20479;-74
2022/04/09 05:48:08;;;;;;;125.53;54.30;;;;;;;;;;5096283;28;20478;-73
2022/04/09 05:50:36;;;;;;;102.67;49.47;;;;;;;;;;5095876;28;20452;-74
2022/04/09 05:53:04;;;;;;;87.20;46.37;;;;;;;;;;5095854;28;20458;-73
2022/04/09 05:55:31;;;;;;;130.43;54.90;;;;;;;;;;5096510;28;20868;-73
2022/04/09 05:57:59;;;;;;;95.20;48.47;;;;;;;;;;5095882;28;20478;-73
2022/04/09 06:00:28;;;;;;;136.07;52.70;;;;;;;;;;5096117;28;20551;-73
2022/04/09 06:02:56;;;;;;;87.57;47.23;;;;;;;;;;5096476;28;20521;-73
2022/04/09 06:05:24;;;;;;;121.03;52.20;;;;;;;;;;5110742;28;20478;-74
2022/04/09 06:07:52;;;;;;;134.30;59.50;;;;;;;;;;5111293;28;20752;-74
2022/04/09 06:10:20;;;;;;;144.23;61.17;;;;;;;;;;5094216;28;20743;-75
2022/04/09 06:12:47;;;;;;;147.97;55.77;;;;;;;;;;5096995;28;20459;-74
2022/04/09 06:15:15;;;;;;;123.70;53.27;;;;;;;;;;5099775;28;20538;-74
2022/04/09 06:17:47;;;;;;;115.83;53.40;;;;;;;;;;5099755;28;20455;-74
2022/04/09 06:20:15;;;;;;;133.87;58.07;;;;;;;;;;5100236;28;20570;-73
2022/04/09 06:22:43;;;;;;;122.70;53.47;;;;;;;;;;5100134;28;20608;-73
2022/04/09 06:25:11;;;;;;;141.60;56.23;;;;;;;;;;5099678;28;20483;-73
2022/04/09 06:27:42;;;;;;;119.73;55.20;;;;;;;;;;5099232;28;20464;-73
2022/04/09 06:30:11;;;;;;;129.43;58.03;;;;;;;;;;5097603;28;20457;-73
2022/04/09 06:32:38;;;;;;;122.47;55.07;;;;;;;;;;5100041;28;20750;-74
2022/04/09 06:35:08;;;;;;;133.33;59.60;;;;;;;;;;5098633;28;20483;-74
2022/04/09 06:37:38;;;;;;;148.47;63.20;;;;;;;;;;5099365;28;20475;-74
2022/04/09 06:40:09;;;;;;;113.47;53.57;;;;;;;;;;5098865;28;20486;-74
2022/04/09 06:42:40;;;;;;;115.37;53.77;;;;;;;;;;5098564;28;20513;-73
2022/04/09 06:45:09;;;;;;;141.17;55.90;;;;;;;;;;5098047;28;20475;-74
2022/04/09 06:47:37;;;;;;;138.37;58.60;;;;;;;;;;5099406;28;20474;-74
2022/04/09 06:50:19;;;;;;;137.07;59.10;;;;;;;;;;5099054;28;20542;-74
2022/04/09 06:52:49;;;;;;;120.60;58.63;;;;;;;;;;5114730;28;20442;-74
2022/04/09 06:55:18;;;;;;;128.60;57.33;;;;;;;;;;5121387;28;20565;-74
2022/04/09 06:57:45;;;;;;;118.17;54.63;;;;;;;;;;5111554;28;20455;-74
2022/04/09 07:00:14;;;;;;;100.03;55.87;;;;;;;;;;5096429;28;20596;-74
2022/04/09 07:02:48;;;;;;;128.10;60.07;;;;;;;;;;5094308;28;20456;-74
2022/04/09 07:05:22;;;;;;;133.40;61.60;;;;;;;;;;5078181;28;20501;-74
2022/04/09 07:07:50;;;;;;;138.30;64.40;;;;;;;;;;5098939;28;20447;-73
2022/04/09 07:10:19;;;;;;;119.50;61.00;;;;;;;;;;5099150;28;20459;-74
2022/04/09 07:12:52;;;;;;;106.33;56.47;;;;;;;;;;5087364;28;20440;-75
2022/04/09 07:15:20;;;;;;;105.80;58.70;;;;;;;;;;5076805;28;20452;-74
2022/04/09 07:17:48;;;;;;;109.37;59.77;;;;;;;;;;5082120;28;20451;-74
2022/04/09 07:20:18;;;;;;;108.80;56.40;;;;;;;;;;5098968;28;20458;-74
2022/04/09 07:22:46;;;;;;;93.20;55.30;;;;;;;;;;5097577;28;20448;-74
2022/04/09 07:25:16;;;;;;;112.13;57.60;;;;;;;;;;5097981;28;20490;-75
2022/04/09 07:27:45;;;;;;;123.03;68.47;;;;;;;;;;5096102;28;20452;-74
2022/04/09 07:30:14;;;;;;;114.23;59.20;;;;;;;;;;5089443;28;20455;-75
2022/04/09 07:32:45;;;;;;;126.87;60.80;;;;;;;;;;5100472;28;20452;-74
2022/04/09 07:35:14;;;;;;;114.63;55.60;;;;;;;;;;5110645;28;20862;-73
2022/04/09 07:37:46;;;;;;;128.47;67.10;;;;;;;;;;5110932;28;20467;-73
2022/04/09 07:40:34;;;;;;;128.53;61.20;;;;;;;;;;5084668;28;20457;-73
2022/04/09 07:43:03;;;;;;;121.67;58.67;;;;;;;;;;5089427;28;20550;-73
2022/04/09 07:45:32;;;;;;;95.53;55.97;;;;;;;;;;5106921;28;20757;-73
2022/04/09 07:48:05;;;;;;;113.07;63.27;;;;;;;;;;5112838;28;20471;-75
2022/04/09 07:50:41;;;;;;;125.47;62.50;;;;;;;;;;5096792;28;20456;-73
2022/04/09 07:53:11;;;;;;;131.90;61.27;;;;;;;;;;5084335;28;20502;-75
2022/04/09 07:55:38;;;;;;;114.80;63.40;;;;;;;;;;5087834;28;20691;-74
2022/04/09 07:58:11;;;;;;;130.37;66.77;;;;;;;;;;5090929;28;21054;-74
2022/04/09 08:00:40;;;;;;;124.90;66.27;;;;;;;;;;5077110;28;20719;-75
2022/04/09 08:06:11;;;;;;;91.50;56.87;;;;;;;;;;5076088;28;20483;-75
2022/04/09 08:11:40;;;;;;;96.47;68.63;;;;;;;;;;5089354;28;20453;-73
2022/04/09 08:14:12;;;;;;;77.53;61.20;;;;;;;;;;5096893;28;20455;-75
2022/04/09 08:16:43;;;;;;;101.07;61.60;;;;;;;;;;5087388;28;20509;-74
2022/04/09 08:19:15;;;;;;;87.87;57.07;;;;;;;;;;5083225;28;20523;-73
2022/04/09 08:21:45;;;;;;;106.73;65.13;;;;;;;;;;5096752;28;20873;-75
2022/04/09 08:24:13;;;;;;;98.97;61.57;;;;;;;;;;5096219;28;20551;-75
2022/04/09 08:26:42;;;;;;;123.33;68.00;;;;;;;;;;5096773;28;20902;-74
2022/04/09 08:29:15;;;;;;;144.60;71.50;;;;;;;;;;5096329;28;20452;-75
2022/04/09 08:31:46;;;;;;;127.47;69.43;;;;;;;;;;5096847;28;20452;-75
2022/04/09 08:34:19;;;;;;;146.00;70.53;;;;;;;;;;5096488;28;20864;-74
2022/04/09 08:37:22;;;;;;;129.20;68.80;;;;;;;;;;5095538;28;20858;-75
2022/04/09 08:40:06;;;;;;;133.50;71.50;;;;;;;;;;5106419;28;20459;-74
2022/04/09 08:42:43;;;;;;;125.50;67.47;;;;;;;;;;5082446;28;20731;-76
2022/04/09 08:45:13;;;;;;;139.80;71.10;;;;;;;;;;5088911;28;20761;-75
2022/04/09 08:47:43;;;;;;;137.13;69.13;;;;;;;;;;5095900;28;20459;-75
2022/04/09 08:56:00;;;;;;;123.73;64.13;;;;;;;;;;5099804;28;20744;-75
2022/04/09 08:58:31;;;;;;;132.57;68.60;;;;;;;;;;5097887;28;20460;-74
2022/04/09 09:00:59;;;;;;;155.20;70.50;;;;;;;;;;5104996;28;20466;-74
2022/04/09 09:03:30;;;;;;;150.63;65.77;;;;;;;;;;5099064;28;20518;-74
2022/04/09 09:05:58;;;;;;;146.50;69.87;;;;;;;;;;5097095;28;20471;-74
2022/04/09 09:08:42;;;;;;;154.27;70.37;;;;;;;;;;5095930;28;20531;-75
2022/04/09 09:11:10;;;;;;;142.60;66.23;;;;;;;;;;5096529;28;20541;-75
2022/04/09 09:13:52;;;;;;;155.07;67.20;;;;;;;;;;5095940;28;20912;-74
2022/04/09 09:16:28;;;;;;;160.47;67.50;;;;;;;;;;5090696;28;20458;-75
2022/04/09 09:19:02;;;;;;;156.63;69.63;;;;;;;;;;5096981;28;20436;-75
2022/04/09 09:21:39;;;;;;;150.80;63.87;;;;;;;;;;5096307;28;20455;-75
2022/04/09 09:24:15;;;;;;;161.07;69.83;;;;;;;;;;5098920;28;20443;-74
2022/04/09 09:27:07;;;;;;;159.40;68.70;;;;;;;;;;5088868;28;20746;-75
2022/04/09 09:29:48;;;;;;;164.47;68.03;;;;;;;;;;5093579;28;20967;-74
2022/04/09 09:32:26;;;;;;;150.40;67.90;;;;;;;;;;5096025;28;20832;-72
2022/04/09 09:34:55;;;;;;;154.13;65.33;;;;;;;;;;5087568;28;20455;-74
2022/04/09 09:37:24;;;;;;;162.93;71.43;;;;;;;;;;5092083;28;20839;-74
2022/04/09 09:39:52;;;;;;;152.47;68.90;;;;;;;;;;5092156;28;20513;-74
2022/04/09 09:42:20;;;;;;;160.13;80.70;;;;;;;;;;5089489;28;20491;-74
2022/04/09 09:44:59;;;;;;;184.23;93.67;;;;;;;;;;5095033;28;20452;-75
2022/04/09 09:47:29;;;;;;;88.63;66.43;;;;;;;;;;5092424;28;20479;-75
2022/04/09 09:50:18;;;;;;;76.83;60.73;;;;;;;;;;5088041;28;20470;-75
2022/04/09 09:52:45;;;;;;;96.40;68.60;;;;;;;;;;5093028;28;20456;-75
2022/04/09 09:55:20;;;;;;;160.23;72.93;;;;;;;;;;5089425;28;20743;-74
2022/04/09 09:57:54;;;;;;;174.30;79.90;;;;;;;;;;5092920;28;20455;-75
2022/04/09 10:00:42;;;;;;;179.27;84.40;;;;;;;;;;5093257;28;21082;-74
2022/04/09 10:03:24;;;;;;;182.13;79.70;;;;;;;;;;5093006;28;20447;-74
2022/04/09 10:06:03;;;;;;;186.13;81.10;;;;;;;;;;5094701;28;21006;-74
2022/04/09 10:08:31;;;;;;;195.23;96.50;;;;;;;;;;5094440;28;20459;-74
2022/04/09 10:11:01;;;;;;;187.90;82.90;;;;;;;;;;5076858;28;20465;-73
2022/04/09 10:13:29;;;;;;;184.43;83.07;;;;;;;;;;5079060;28;20489;-73
2022/04/09 10:16:11;;;;;;;154.10;80.23;;;;;;;;;;5094620;28;20440;-74
2022/04/09 10:18:41;;;;;;;161.33;70.87;;;;;;;;;;5073745;28;20452;-73
2022/04/09 10:21:11;;;;;;;185.47;83.63;;;;;;;;;;5074157;28;20525;-74
2022/04/09 10:23:42;;;;;;;190.60;87.60;;;;;;;;;;5081228;28;20745;-73
2022/04/09 10:26:17;;;;;;;177.93;83.30;;;;;;;;;;5093737;28;20480;-74
2022/04/09 10:28:51;;;;;;;183.60;87.57;;;;;;;;;;5087543;28;20459;-75
2022/04/09 10:31:38;;;;;;;174.23;83.83;;;;;;;;;;5093336;28;20486;-74
2022/04/09 10:34:10;;;;;;;169.40;82.93;;;;;;;;;;5093526;28;20544;-74
2022/04/09 10:37:01;;;;;;;154.63;81.73;;;;;;;;;;5093952;28;20542;-73
2022/04/09 10:39:46;;;;;;;164.57;79.57;;;;;;;;;;5092971;28;20897;-74
2022/04/09 10:42:35;;;;;;;166.50;69.77;;;;;;;;;;5093305;28;20459;-74
2022/04/09 10:45:09;;;;;;;167.00;75.30;;;;;;;;;;5093697;28;20921;-74
2022/04/09 10:50:53;;;;;;;172.57;76.63;;;;;;;;;;5111995;27;20620;-73
2022/04/09 10:53:27;;;;;;;182.57;77.00;;;;;;;;;;5111817;28;20458;-73
2022/04/09 10:56:13;;;;;;;160.60;74.30;;;;;;;;;;5113256;28;20585;-75
2022/04/09 10:59:05;;;;;;;167.67;78.10;;;;;;;;;;5112706;28;20451;-73
2022/04/09 11:01:51;;;;;;;148.90;69.37;;;;;;;;;;5106701;28;20471;-72
2022/04/09 11:04:39;;;;;;;159.77;82.87;;;;;;;;;;5103807;28;20475;-73
2022/04/09 11:07:14;;;;;;;163.17;75.07;;;;;;;;;;5103756;28;20875;-73
2022/04/09 11:09:51;;;;;;;162.50;80.37;;;;;;;;;;5112225;28;20486;-72
2022/04/09 11:12:21;;;;;;;162.60;81.57;;;;;;;;;;5111570;28;20458;-74
2022/04/09 11:15:00;;;;;;;150.73;76.47;;;;;;;;;;5108724;28;20486;-73
2022/04/09 11:17:33;;;;;;;161.90;80.23;;;;;;;;;;5106807;28;20443;-72
2022/04/09 11:20:06;;;;;;;175.77;91.30;;;;;;;;;;5103168;28;20531;-72
2022/04/09 11:22:44;;;;;;;177.27;87.40;;;;;;;;;;5109210;27;20455;-72
2022/04/09 11:25:20;;;;;;;169.93;91.07;;;;;;;;;;5099099;28;20447;-74
2022/04/09 11:27:48;;;;;;;186.93;90.93;;;;;;;;;;5091411;28;20502;-73
2022/04/09 11:30:16;;;;;;;165.50;86.87;;;;;;;;;;5091759;28;21019;-74
2022/04/09 11:32:44;;;;;;;152.77;81.40;;;;;;;;;;5090677;28;20461;-72
2022/04/09 11:35:12;;;;;;;185.00;96.27;;;;;;;;;;5090042;28;20931;-74
2022/04/09 11:37:42;;;;;;;182.67;93.20;;;;;;;;;;5099039;28;20458;-74
2022/04/09 11:40:11;;;;;;;180.13;90.97;;;;;;;;;;5102764;28;20542;-71
2022/04/09 11:42:49;;;;;;;179.60;95.57;;;;;;;;;;5091242;28;20470;-73
2022/04/09 11:45:20;;;;;;;157.03;88.07;;;;;;;;;;5106605;28;20463;-72
2022/04/09 11:47:48;;;;;;;155.07;84.30;;;;;;;;;;5110960;28;20443;-73
2022/04/09 11:50:28;;;;;;;179.93;93.70;;;;;;;;;;5111172;28;20502;-74
2022/04/09 11:53:28;;;;;;;181.53;87.77;;;;;;;;;;5125042;27;20478;-74
2022/04/09 11:59:02;;;;;;;160.70;82.07;;;;;;;;;;5115563;27;20447;-74
2022/04/09 12:01:33;;;;;;;169.33;82.33;;;;;;;;;;5098399;28;20538;-72
2022/04/09 12:04:12;;;;;;;164.27;84.40;;;;;;;;;;5095539;28;20447;-73
2022/04/09 12:06:40;;;;;;;162.60;79.07;;;;;;;;;;5094385;28;20887;-73
2022/04/09 12:09:10;;;;;;;157.50;82.60;;;;;;;;;;5091869;28;20511;-72
2022/04/09 12:11:42;;;;;;;157.57;85.47;;;;;;;;;;5095444;28;20520;-74
2022/04/09 12:14:13;;;;;;;162.97;79.90;;;;;;;;;;5091948;28;20449;-73
2022/04/09 12:16:42;;;;;;;158.80;84.57;;;;;;;;;;5097304;28;20562;-74
2022/04/09 12:19:11;;;;;;;175.50;91.13;;;;;;;;;;5096470;28;20849;-72
2022/04/09 12:21:41;;;;;;;178.60;97.10;;;;;;;;;;5096501;28;20550;-72
2022/04/09 12:24:13;;;;;;;163.53;90.40;;;;;;;;;;5096679;28;20452;-74
2022/04/09 12:26:42;;;;;;;162.00;97.03;;;;;;;;;;5095283;28;20466;-73
2022/04/09 12:29:12;;;;;;;170.50;99.77;;;;;;;;;;5095984;28;20511;-73
2022/04/09 12:31:41;;;;;;;185.17;90.53;;;;;;;;;;5095205;28;20471;-74
2022/04/09 12:34:26;;;;;;;193.33;91.63;;;;;;;;;;5096064;28;20446;-73
2022/04/09 12:37:01;;;;;;;182.17;89.57;;;;;;;;;;5112508;28;20450;-73
2022/04/09 12:39:30;;;;;;;188.50;92.50;;;;;;;;;;5102550;28;20439;-73
2022/04/09 12:42:00;;;;;;;205.20;96.17;;;;;;;;;;5096525;28;20460;-73
2022/04/09 12:44:33;;;;;;;203.03;100.03;;;;;;;;;;5095750;28;20502;-73
2022/04/09 12:47:01;;;;;;;211.97;107.60;;;;;;;;;;5094266;28;20450;-74
2022/04/09 12:49:29;;;;;;;213.27;107.77;;;;;;;;;;5094911;28;20468;-74
2022/04/09 12:52:04;;;;;;;170.10;101.03;;;;;;;;;;5077476;28;20456;-74
2022/04/09 12:54:36;;;;;;;199.30;105.30;;;;;;;;;;5087717;28;20447;-74
2022/04/09 12:57:11;;;;;;;202.40;111.80;;;;;;;;;;5095702;28;20479;-76
2022/04/09 12:59:53;;;;;;;174.33;100.27;;;;;;;;;;5095048;28;20448;-74
2022/04/09 13:02:25;;;;;;;173.07;99.33;;;;;;;;;;5074586;28;20468;-73
2022/04/09 13:05:02;;;;;;;174.50;102.63;;;;;;;;;;5082224;28;20440;-74
2022/04/09 13:07:36;;;;;;;148.70;98.07;;;;;;;;;;5095508;28;20467;-74
2022/04/09 13:13:18;;;;;;;138.30;98.77;;;;;;;;;;5083812;28;20777;-73
2022/04/09 13:16:06;;;;;;;142.10;90.77;;;;;;;;;;5093438;28;20439;-75
2022/04/09 13:18:41;;;;;;;144.47;87.47;;;;;;;;;;5105666;28;20507;-75
2022/04/09 13:21:09;;;;;;;141.17;86.67;;;;;;;;;;5115313;28;20457;-74
2022/04/09 13:23:38;;;;;;;150.83;95.00;;;;;;;;;;5083126;28;20443;-74
2022/04/09 13:26:08;;;;;;;149.00;89.87;;;;;;;;;;5093065;28;20452;-74
2022/04/09 13:28:47;;;;;;;170.07;106.17;;;;;;;;;;5093665;28;20542;-74
2022/04/09 13:31:34;;;;;;;171.10;104.43;;;;;;;;;;5093386;28;20458;-74
2022/04/09 13:34:04;;;;;;;187.63;105.53;;;;;;;;;;5092660;28;20444;-74
2022/04/09 13:36:37;;;;;;;202.43;104.27;;;;;;;;;;5093451;28;20463;-74
2022/04/09 13:39:06;;;;;;;201.20;117.97;;;;;;;;;;5093836;28;20941;-74
2022/04/09 13:41:36;;;;;;;203.67;109.87;;;;;;;;;;5093975;28;20500;-72
2022/04/09 13:44:05;;;;;;;196.83;112.87;;;;;;;;;;5094101;28;20455;-74
2022/04/09 13:46:37;;;;;;;174.40;106.00;;;;;;;;;;5101219;28;20474;-73
2022/04/09 13:49:06;;;;;;;168.07;98.23;;;;;;;;;;5100283;28;21060;-73
2022/04/09 13:51:38;;;;;;;180.10;112.97;;;;;;;;;;5093835;28;20517;-74
2022/04/09 13:54:18;;;;;;;169.63;104.03;;;;;;;;;;5096203;28;20933;-73
2022/04/09 13:56:46;;;;;;;164.33;93.00;;;;;;;;;;5092988;28;20785;-74
2022/04/09 13:59:14;;;;;;;201.33;105.03;;;;;;;;;;5094736;28;20852;-74
2022/04/09 14:01:42;;;;;;;182.37;104.87;;;;;;;;;;5094309;28;20450;-74
2022/04/09 14:04:11;;;;;;;188.53;111.67;;;;;;;;;;5094335;28;20508;-74
2022/04/09 14:06:39;;;;;;;182.10;108.00;;;;;;;;;;5113467;28;20455;-73
2022/04/09 14:09:20;;;;;;;167.07;98.87;;;;;;;;;;5113597;28;20481;-72
2022/04/09 14:11:50;;;;;;;174.17;93.03;;;;;;;;;;5074370;28;20922;-74
2022/04/09 14:14:28;;;;;;;173.67;93.17;;;;;;;;;;5073814;28;20456;-74
2022/04/09 14:16:57;;;;;;;156.60;93.23;;;;;;;;;;5091262;28;20462;-73
2022/04/09 14:19:33;;;;;;;169.60;91.20;;;;;;;;;;5093666;28;20460;-74
2022/04/09 14:22:01;;;;;;;155.60;86.57;;;;;;;;;;5093267;28;20546;-72
2022/04/09 14:24:30;;;;;;;158.53;91.23;;;;;;;;;;5092821;28;20586;-72
2022/04/09 14:26:59;;;;;;;169.70;100.00;;;;;;;;;;5092486;28;20921;-74
2022/04/09 14:29:28;;;;;;;175.77;103.93;;;;;;;;;;5093493;28;20546;-74
2022/04/09 14:31:55;;;;;;;176.90;91.27;;;;;;;;;;5094079;28;20538;-73
2022/04/09 14:34:25;;;;;;;191.93;102.37;;;;;;;;;;5094561;28;20455;-73
2022/04/09 14:39:38;;;;;;;198.13;115.90;;;;;;;;;;5090520;28;20832;-73
2022/04/09 14:42:09;;;;;;;180.07;95.57;;;;;;;;;;5093668;28;20477;-74
2022/04/09 14:44:43;;;;;;;187.47;95.80;;;;;;;;;;5089088;28;20499;-75
2022/04/09 14:47:11;;;;;;;195.10;95.97;;;;;;;;;;5072909;28;20884;-74
2022/04/09 14:49:39;;;;;;;200.70;103.87;;;;;;;;;;5072979;28;20488;-73
2022/04/09 14:52:10;;;;;;;181.33;97.23;;;;;;;;;;5073261;28;20521;-74